Terminal Aerodrome Forecast
Issued by NWS

Home | Current Version | Previous Version | Text Only | Print | Product List | Glossary On
Versions: 1 2 3 4 5 6 7 8 9 10 11 12 13 14 15 16 17
000
FTUS41 KCLE 272300
TAFFDY
TAF
KFDY 272331Z 2800/2824 34012KT P6SM OVC035
     FM280600 36005KT P6SM SCT035
     FM281600 02008KT P6SM BKN050=

USA.gov is the U.S. government's official web portal to all federal, state and local government web resources and services.